createdAt,value
2022-08-29T00:01:01.082Z,99575.34
2022-08-29T00:03:32.930Z,99572.19
2022-08-29T00:06:03.607Z,99555.69
2022-08-29T00:08:32.818Z,99551.44
2022-08-29T00:11:01.865Z,99557.44
2022-08-29T00:13:36.192Z,99554.16
2022-08-29T00:16:05.779Z,99555.25
2022-08-29T00:18:43.891Z,99542.38
2022-08-29T00:21:13.359Z,99546.78
2022-08-29T00:23:42.384Z,99529.16
2022-08-29T00:28:51.285Z,99516.03
2022-08-29T00:31:25.582Z,99512.19
2022-08-29T00:33:57.253Z,99507.78
2022-08-29T00:36:27.293Z,99500.19
2022-08-29T00:38:59.852Z,99499.81
2022-08-29T00:41:28.945Z,99502.34
2022-08-29T00:43:58.212Z,99489.84
2022-08-29T00:46:56.277Z,99496.25
2022-08-29T00:49:38.807Z,99490.00
2022-08-29T00:52:13.470Z,99480.03
2022-08-29T00:54:45.224Z,99471.97
2022-08-29T00:57:21.660Z,99467.38
2022-08-29T00:59:52.694Z,99462.47
2022-08-29T01:02:22.389Z,99465.88
2022-08-29T01:04:53.867Z,99448.25
2022-08-29T01:07:28.706Z,99454.09
2022-08-29T01:09:57.912Z,99452.50
2022-08-29T01:12:26.649Z,99454.19
2022-08-29T01:14:58.597Z,99447.25
2022-08-29T01:17:29.050Z,99440.59
2022-08-29T01:20:05.480Z,99442.44
2022-08-29T01:22:47.063Z,99428.44
2022-08-29T01:25:23.145Z,99410.13
2022-08-29T01:28:00.408Z,99410.22
2022-08-29T01:30:35.201Z,99415.69
2022-08-29T01:33:04.428Z,99416.97
2022-08-29T01:35:34.019Z,99425.91
2022-08-29T01:38:09.146Z,99415.50
2022-08-29T01:40:40.799Z,99411.53
2022-08-29T01:43:09.695Z,99413.31
2022-08-29T01:48:14.526Z,99405.22
2022-08-29T01:50:44.042Z,99401.94
2022-08-29T01:55:50.208Z,99390.84
2022-08-29T01:58:19.669Z,99373.31
2022-08-29T02:00:49.157Z,99371.25
2022-08-29T02:03:18.685Z,99375.56
2022-08-29T02:05:48.603Z,99390.41
2022-08-29T02:08:20.370Z,99365.91
2022-08-29T02:10:51.929Z,99372.66
2022-08-29T02:13:21.127Z,99357.84
2022-08-29T02:15:50.263Z,99362.13
2022-08-29T02:18:20.229Z,99357.56
2022-08-29T02:20:50.326Z,99351.03
2022-08-29T02:23:30.507Z,99385.69
2022-08-29T02:26:02.502Z,99376.53
2022-08-29T02:28:32.013Z,99360.75
2022-08-29T02:31:01.517Z,99356.78
2022-08-29T02:33:36.232Z,99345.78
2022-08-29T02:36:08.387Z,99388.56
2022-08-29T02:38:38.146Z,99391.34
2022-08-29T02:41:14.050Z,99396.13
2022-08-29T02:43:49.588Z,99383.78
2022-08-29T02:46:20.470Z,99383.78
2022-08-29T02:48:58.237Z,99381.47
2022-08-29T02:51:32.568Z,99363.28
2022-08-29T02:54:02.914Z,99357.84
2022-08-29T02:56:33.928Z,99327.63
2022-08-29T02:59:03.026Z,99326.03
2022-08-29T03:01:33.022Z,99330.94
2022-08-29T03:04:08.987Z,99336.84
2022-08-29T03:06:38.175Z,99332.91
2022-08-29T03:09:08.156Z,99340.41
2022-08-29T03:11:39.463Z,99336.84
2022-08-29T03:14:08.802Z,99339.94
2022-08-29T03:16:38.663Z,99342.09
2022-08-29T03:19:07.834Z,99349.06
2022-08-29T03:21:37.064Z,99355.16
2022-08-29T03:24:06.319Z,99355.25
2022-08-29T03:26:42.522Z,99358.81
2022-08-29T03:29:16.630Z,99352.72
2022-08-29T03:31:46.657Z,99330.19
2022-08-29T03:34:16.270Z,99318.44
2022-08-29T03:36:45.484Z,99332.53
2022-08-29T03:39:14.601Z,99335.16
2022-08-29T03:41:50.732Z,99340.31
2022-08-29T03:44:21.768Z,99343.06
2022-08-29T03:46:51.058Z,99341.44
2022-08-29T03:49:20.190Z,99330.66
2022-08-29T03:51:49.623Z,99328.03
2022-08-29T03:54:18.726Z,99310.25
2022-08-29T03:56:48.231Z,99333.47
2022-08-29T03:59:20.323Z,99322.56
2022-08-29T04:01:49.751Z,99310.56
2022-08-29T04:04:32.782Z,99312.72
2022-08-29T04:07:08.461Z,99303.69
2022-08-29T04:09:39.275Z,99305.28
2022-08-29T04:12:10.933Z,99283.13
2022-08-29T04:14:48.144Z,99275.59
2022-08-29T04:17:17.271Z,99263.59
2022-08-29T04:19:48.948Z,99263.53
2022-08-29T04:22:19.439Z,99257.88
2022-08-29T04:24:48.545Z,99255.72
2022-08-29T04:27:17.620Z,99270.78
2022-08-29T04:29:49.810Z,99246.41
2022-08-29T04:32:19.524Z,99256.78
2022-08-29T04:34:48.694Z,99261.78
2022-08-29T04:39:58.489Z,99236.94
2022-08-29T04:42:28.273Z,99265.25
2022-08-29T04:44:59.573Z,99266.63
2022-08-29T04:47:28.843Z,99266.31
2022-08-29T04:49:58.586Z,99266.38
2022-08-29T04:52:29.165Z,99246.00
2022-08-29T04:54:59.065Z,99253.28
2022-08-29T04:57:29.146Z,99243.16
2022-08-29T05:00:01.080Z,99277.19
2022-08-29T05:02:30.390Z,99279.72
2022-08-29T05:04:59.482Z,99282.00
2022-08-29T05:07:28.978Z,99274.09
2022-08-29T05:10:00.569Z,99287.50
2022-08-29T05:12:36.164Z,99269.94
2022-08-29T05:15:08.852Z,99266.72
2022-08-29T05:17:43.625Z,99260.41
2022-08-29T05:20:17.793Z,99259.03
2022-08-29T05:22:46.989Z,99245.34
2022-08-29T05:25:18.475Z,99222.25
2022-08-29T05:27:48.132Z,99264.34
2022-08-29T05:30:35.214Z,99250.22
2022-08-29T05:33:05.300Z,99246.75
2022-08-29T05:35:34.734Z,99260.44
2022-08-29T05:38:09.186Z,99264.56
2022-08-29T05:40:39.415Z,99252.53
2022-08-29T05:43:09.710Z,99254.56
2022-08-29T05:45:46.003Z,99237.41
2022-08-29T05:48:16.939Z,99243.16
2022-08-29T05:50:46.490Z,99254.22
2022-08-29T05:53:18.886Z,99265.31
2022-08-29T05:55:48.149Z,99236.41
2022-08-29T05:58:17.932Z,99244.59
2022-08-29T06:00:50.556Z,99242.16
2022-08-29T06:03:20.520Z,99243.00
2022-08-29T06:05:53.446Z,99223.66
2022-08-29T06:08:22.925Z,99231.00
2022-08-29T06:10:52.069Z,99231.81
2022-08-29T06:13:21.487Z,99233.47
2022-08-29T06:15:53.074Z,99231.22
2022-08-29T06:18:34.337Z,99239.63
2022-08-29T06:21:06.671Z,99242.16
2022-08-29T06:23:42.631Z,99240.09
2022-08-29T06:26:13.678Z,99244.19
2022-08-29T06:28:45.493Z,99244.28
2022-08-29T06:31:20.298Z,99247.06
2022-08-29T06:33:51.880Z,99238.09
2022-08-29T06:36:20.746Z,99250.28
2022-08-29T06:38:50.363Z,99238.25
2022-08-29T06:41:20.283Z,99233.63
2022-08-29T06:43:50.876Z,99238.88
2022-08-29T06:46:29.774Z,99243.66
2022-08-29T06:49:00.461Z,99233.69
2022-08-29T06:51:37.659Z,99220.50
2022-08-29T06:54:13.716Z,99226.41
2022-08-29T06:56:46.083Z,99232.31
2022-08-29T06:59:15.434Z,99237.28
2022-08-29T07:01:47.553Z,99237.41
2022-08-29T07:04:20.619Z,99223.19
2022-08-29T07:06:51.016Z,99221.03
2022-08-29T07:09:20.273Z,99228.25
2022-08-29T07:11:49.404Z,99212.81
2022-08-29T07:14:18.477Z,99211.03
2022-08-29T07:16:49.750Z,99213.72
2022-08-29T07:19:24.061Z,99221.25
2022-08-29T07:21:53.934Z,99213.44
2022-08-29T07:24:27.509Z,99210.06
2022-08-29T07:26:58.797Z,99226.56
2022-08-29T07:29:27.496Z,99233.13
2022-08-29T07:31:58.453Z,99232.72
2022-08-29T07:34:27.851Z,99217.78
2022-08-29T07:36:56.949Z,99221.69
2022-08-29T07:39:26.434Z,99223.06
2022-08-29T07:41:55.639Z,99222.94
2022-08-29T07:44:24.766Z,99224.34
2022-08-29T07:47:07.210Z,99231.03
2022-08-29T07:49:41.493Z,99214.00
2022-08-29T07:52:12.002Z,99221.53
2022-08-29T07:54:41.160Z,99216.78
2022-08-29T07:57:10.202Z,99210.38
2022-08-29T07:59:41.595Z,99218.63
2022-08-29T08:02:13.291Z,99222.25
2022-08-29T08:04:42.665Z,99215.09
2022-08-29T08:07:16.712Z,99226.28
2022-08-29T08:09:46.804Z,99220.69
2022-08-29T08:12:22.667Z,99227.63
2022-08-29T08:14:51.907Z,99230.16
2022-08-29T08:17:23.025Z,99215.09
2022-08-29T08:19:53.111Z,99213.28
2022-08-29T08:22:22.230Z,99196.94
2022-08-29T08:24:51.440Z,99210.09
2022-08-29T08:27:20.739Z,99234.34
2022-08-29T08:29:49.778Z,99215.09
2022-08-29T08:32:18.867Z,99200.16
2022-08-29T08:34:50.125Z,99232.66
2022-08-29T08:37:28.019Z,99226.09
2022-08-29T08:40:04.460Z,99229.03
2022-08-29T08:42:42.324Z,99231.63
2022-08-29T08:45:13.597Z,99224.34
2022-08-29T08:47:47.061Z,99227.25
2022-08-29T08:50:30.843Z,99230.78
2022-08-29T08:53:07.536Z,99229.81
2022-08-29T08:55:42.853Z,99221.41
2022-08-29T08:58:28.962Z,99229.06
2022-08-29T09:01:03.103Z,99234.34
2022-08-29T09:04:05.123Z,99233.50
2022-08-29T09:06:55.148Z,99241.31
2022-08-29T09:09:35.475Z,99240.84
2022-08-29T09:12:17.825Z,99234.28
2022-08-29T09:14:59.773Z,99240.56
2022-08-29T09:17:36.705Z,99236.94
2022-08-29T09:20:10.371Z,99236.22
2022-08-29T09:22:44.318Z,99225.34
2022-08-29T09:25:14.885Z,99249.41
2022-08-29T09:27:49.964Z,99242.03
2022-08-29T09:30:26.207Z,99245.31
2022-08-29T09:33:00.322Z,99235.19
2022-08-29T09:35:36.670Z,99239.34
2022-08-29T09:38:14.517Z,99222.72
2022-08-29T09:40:54.266Z,99233.75
2022-08-29T09:43:28.624Z,99221.84
2022-08-29T09:46:18.364Z,99221.69
2022-08-29T09:48:49.798Z,99220.31
2022-08-29T09:51:29.804Z,99215.38
2022-08-29T09:54:23.012Z,99214.47
2022-08-29T09:56:56.217Z,99211.38
2022-08-29T09:59:33.485Z,99210.63
2022-08-29T10:02:20.654Z,99211.34
2022-08-29T10:04:57.876Z,99222.38
2022-08-29T10:07:29.465Z,99219.22
2022-08-29T10:10:03.579Z,99213.09
2022-08-29T10:12:49.083Z,99215.06
2022-08-29T10:15:46.581Z,99217.16
2022-08-29T10:18:34.039Z,99213.41
2022-08-29T10:21:14.345Z,99213.81
2022-08-29T10:24:15.938Z,99216.03
2022-08-29T10:27:02.749Z,99221.97
2022-08-29T10:29:48.597Z,99206.34
2022-08-29T10:32:35.670Z,99220.09
2022-08-29T10:35:13.403Z,99220.09
2022-08-29T10:37:56.626Z,99219.19
2022-08-29T10:40:30.720Z,99225.94
2022-08-29T10:43:25.883Z,99245.69
2022-08-29T10:46:20.270Z,99227.59
2022-08-29T10:48:59.927Z,99222.88
2022-08-29T10:51:40.298Z,99230.25
2022-08-29T10:54:20.844Z,99235.28
2022-08-29T10:56:50.924Z,99201.97
2022-08-29T10:59:34.199Z,99231.53
2022-08-29T11:02:10.771Z,99237.13
2022-08-29T11:04:50.575Z,99192.66
2022-08-29T11:07:25.506Z,99229.91
2022-08-29T11:09:58.481Z,99260.41
2022-08-29T11:12:36.034Z,99250.59
2022-08-29T11:15:15.934Z,99260.53
2022-08-29T11:17:57.372Z,99246.13
2022-08-29T11:20:28.908Z,99266.00
2022-08-29T11:23:03.150Z,99271.59
2022-08-29T11:25:46.592Z,99257.44
2022-08-29T11:28:26.607Z,99277.19
2022-08-29T11:31:11.741Z,99278.19
2022-08-29T11:33:49.087Z,99268.81
2022-08-29T11:36:32.398Z,99276.31
2022-08-29T11:39:31.663Z,99283.97
2022-08-29T11:42:08.033Z,99279.63
2022-08-29T11:44:40.802Z,99280.19
2022-08-29T11:47:41.163Z,99283.66
2022-08-29T11:50:24.133Z,99290.75
2022-08-29T11:52:57.137Z,99284.59
2022-08-29T11:55:35.349Z,99286.78
2022-08-29T11:58:46.372Z,99297.94
2022-08-29T12:01:50.406Z,99281.81
2022-08-29T12:04:56.789Z,99291.41
2022-08-29T12:07:37.160Z,99280.56
2022-08-29T12:10:09.603Z,99294.00
2022-08-29T12:12:43.469Z,99285.59
2022-08-29T12:15:54.394Z,99303.66
2022-08-29T12:18:46.823Z,99289.16
2022-08-29T12:21:46.767Z,99293.84
2022-08-29T12:24:57.264Z,99287.38
2022-08-29T12:27:59.323Z,99284.13
2022-08-29T12:30:28.837Z,99287.63
2022-08-29T12:33:10.184Z,99292.66
2022-08-29T12:36:10.523Z,99299.41
2022-08-29T12:38:55.797Z,99307.50
2022-08-29T12:41:46.281Z,99297.84
2022-08-29T12:44:17.858Z,99289.69
2022-08-29T12:46:52.190Z,99271.13
2022-08-29T12:49:25.035Z,99298.72
2022-08-29T12:57:25.953Z,99290.16
2022-08-29T12:59:58.784Z,99299.06
2022-08-29T13:02:32.250Z,99296.03
2022-08-29T13:05:02.295Z,99302.06
2022-08-29T13:10:20.167Z,99273.72
2022-08-29T13:12:51.666Z,99302.69
2022-08-29T13:15:28.667Z,99286.22
2022-08-29T13:18:01.605Z,99288.41
2022-08-29T13:20:48.793Z,99279.94
2022-08-29T13:23:27.471Z,99293.84
2022-08-29T13:26:00.834Z,99293.41
2022-08-29T13:28:37.920Z,99298.44
2022-08-29T13:31:26.492Z,99303.16
2022-08-29T13:34:26.031Z,99305.69
2022-08-29T13:37:02.059Z,99299.22
2022-08-29T13:39:45.432Z,99305.88
2022-08-29T13:42:27.077Z,99289.69
2022-08-29T13:45:25.873Z,99300.84
2022-08-29T13:48:15.029Z,99298.59
2022-08-29T13:50:49.643Z,99281.59
2022-08-29T13:53:18.858Z,99287.63
2022-08-29T13:55:48.063Z,99276.72
2022-08-29T13:58:20.734Z,99276.25
2022-08-29T14:00:53.443Z,99281.38
2022-08-29T14:03:23.443Z,99281.78
2022-08-29T14:05:55.899Z,99270.81
2022-08-29T14:08:26.235Z,99281.28
2022-08-29T14:11:00.383Z,99272.59
2022-08-29T14:16:08.107Z,99289.53
2022-08-29T14:18:37.589Z,99287.25
2022-08-29T14:21:06.761Z,99278.75
2022-08-29T14:23:36.368Z,99284.16
2022-08-29T14:26:06.604Z,99279.44
2022-08-29T14:28:43.876Z,99273.31
2022-08-29T14:31:18.768Z,99279.69
2022-08-29T14:33:52.997Z,99281.66
2022-08-29T14:36:25.634Z,99273.34
2022-08-29T14:39:04.165Z,99258.59
2022-08-29T14:41:33.278Z,99277.81
2022-08-29T14:44:02.711Z,99277.56
2022-08-29T14:46:34.002Z,99265.41
2022-08-29T14:49:04.255Z,99270.25
2022-08-29T14:51:33.562Z,99272.41
2022-08-29T14:54:03.099Z,99251.50
2022-08-29T14:56:48.111Z,99264.22
2022-08-29T14:59:18.635Z,99274.72
2022-08-29T15:01:54.552Z,99275.53
2022-08-29T15:04:35.457Z,99276.63
2022-08-29T15:07:09.920Z,99268.56
2022-08-29T15:09:41.335Z,99274.97
2022-08-29T15:12:10.208Z,99280.72
2022-08-29T15:14:42.067Z,99261.25
2022-08-29T15:17:14.446Z,99273.06
2022-08-29T15:22:37.958Z,99259.72
2022-08-29T15:25:08.534Z,99269.81
2022-08-29T15:27:37.669Z,99271.88
2022-08-29T15:30:07.909Z,99270.41
2022-08-29T15:32:40.355Z,99279.31
2022-08-29T15:35:14.169Z,99280.97
2022-08-29T15:37:44.716Z,99284.31
2022-08-29T15:40:14.541Z,99288.16
2022-08-29T15:42:50.034Z,99284.06
2022-08-29T15:45:19.157Z,99279.22
2022-08-29T15:47:54.385Z,99287.50
2022-08-29T15:50:24.660Z,99292.78
2022-08-29T15:52:54.178Z,99297.88
2022-08-29T15:55:25.043Z,99295.72
2022-08-29T15:57:54.308Z,99296.91
2022-08-29T16:00:30.639Z,99286.72
2022-08-29T16:03:10.390Z,99293.16
2022-08-29T16:05:40.631Z,99303.66
2022-08-29T16:08:10.593Z,99301.91
2022-08-29T16:10:46.064Z,99295.50
2022-08-29T16:13:15.266Z,99291.63
2022-08-29T16:15:44.495Z,99287.97
2022-08-29T16:18:15.600Z,99284.72
2022-08-29T16:20:44.871Z,99294.72
2022-08-29T16:23:15.580Z,99290.31
2022-08-29T16:25:49.897Z,99279.66
2022-08-29T16:28:19.298Z,99277.25
2022-08-29T16:30:52.721Z,99274.06
2022-08-29T16:33:29.594Z,99273.25
2022-08-29T16:36:00.284Z,99258.59
2022-08-29T16:38:32.898Z,99271.16
2022-08-29T16:41:08.209Z,99275.88
2022-08-29T16:43:39.185Z,99264.09
2022-08-29T16:46:09.331Z,99273.69
2022-08-29T16:48:41.147Z,99266.00
2022-08-29T16:51:10.869Z,99254.06
2022-08-29T16:53:40.905Z,99262.31
2022-08-29T16:56:13.737Z,99264.41
2022-08-29T16:58:56.660Z,99257.47
2022-08-29T17:01:25.942Z,99266.31
2022-08-29T17:03:57.276Z,99266.72
2022-08-29T17:06:26.494Z,99268.59
2022-08-29T17:11:27.319Z,99262.25
2022-08-29T17:13:55.049Z,99256.47
2022-08-29T17:16:23.864Z,99265.09
2022-08-29T17:18:53.327Z,99260.25
2022-08-29T17:21:30.010Z,99258.88
2022-08-29T17:23:59.720Z,99233.38
2022-08-29T17:26:34.633Z,99263.28
2022-08-29T17:29:09.137Z,99253.16
2022-08-29T17:31:41.249Z,99263.88
2022-08-29T17:34:16.746Z,99259.88
2022-08-29T17:36:49.191Z,99256.63
2022-08-29T17:39:20.036Z,99255.88
2022-08-29T17:41:52.299Z,99243.97
2022-08-29T17:44:22.043Z,99254.72
2022-08-29T17:46:56.608Z,99260.63
2022-08-29T17:49:27.082Z,99258.09
2022-08-29T17:51:58.873Z,99253.25
2022-08-29T17:54:28.417Z,99260.94
2022-08-29T17:56:59.592Z,99256.94
2022-08-29T17:59:35.740Z,99258.06
2022-08-29T18:02:05.750Z,99254.81
2022-08-29T18:04:34.965Z,99247.84
2022-08-29T18:07:06.413Z,99250.47
2022-08-29T18:09:35.977Z,99242.13
2022-08-29T18:12:05.705Z,99244.13
2022-08-29T18:14:34.935Z,99242.63
2022-08-29T18:17:04.211Z,99240.94
2022-08-29T18:19:33.742Z,99232.41
2022-08-29T18:22:02.981Z,99234.41
2022-08-29T18:24:39.443Z,99232.81
2022-08-29T18:27:08.736Z,99225.22
2022-08-29T18:29:38.061Z,99222.22
2022-08-29T18:34:47.693Z,99218.19
2022-08-29T18:37:17.660Z,99189.06
2022-08-29T18:39:48.956Z,99213.19
2022-08-29T18:42:37.152Z,99222.09
2022-08-29T18:45:10.081Z,99218.72
2022-08-29T18:47:39.622Z,99213.09
2022-08-29T18:50:25.103Z,99207.22
2022-08-29T18:52:55.044Z,99215.50
2022-08-29T18:55:28.521Z,99205.25
2022-08-29T18:57:58.308Z,99201.97
2022-08-29T19:00:28.472Z,99204.22
2022-08-29T19:05:42.222Z,99199.66
2022-08-29T19:08:11.711Z,99200.03
2022-08-29T19:10:42.975Z,99198.34
2022-08-29T19:13:12.253Z,99190.47
2022-08-29T19:15:48.071Z,99179.53
2022-08-29T19:18:18.744Z,99182.94
2022-08-29T19:21:01.189Z,99183.13
2022-08-29T19:23:32.289Z,99191.00
2022-08-29T19:26:07.608Z,99188.38
2022-08-29T19:28:37.026Z,99187.41
2022-08-29T19:31:06.497Z,99191.84
2022-08-29T19:33:36.713Z,99192.88
2022-08-29T19:36:13.932Z,99198.31
2022-08-29T19:38:43.796Z,99198.31
2022-08-29T19:41:17.125Z,99200.94
2022-08-29T19:43:46.423Z,99184.25
2022-08-29T19:46:18.364Z,99184.88
2022-08-29T19:48:50.864Z,99186.28
2022-08-29T19:51:24.742Z,99187.16
2022-08-29T19:53:56.256Z,99181.44
2022-08-29T19:56:28.781Z,99170.91
2022-08-29T19:58:59.135Z,99189.28
2022-08-29T20:01:29.040Z,99178.16
2022-08-29T20:03:58.211Z,99179.16
2022-08-29T20:06:27.732Z,99168.19
2022-08-29T20:08:58.272Z,99172.41
2022-08-29T20:11:30.560Z,99154.50
2022-08-29T20:14:07.315Z,99166.88
2022-08-29T20:16:41.336Z,99156.84
2022-08-29T20:19:11.117Z,99159.47
2022-08-29T20:21:40.642Z,99155.16
2022-08-29T20:24:15.472Z,99165.84
2022-08-29T20:26:49.374Z,99166.97
2022-08-29T20:29:26.752Z,99175.22
2022-08-29T20:31:57.330Z,99172.78
2022-08-29T20:34:30.064Z,99159.16
2022-08-29T20:37:09.953Z,99166.69
2022-08-29T20:39:46.431Z,99154.88
2022-08-29T20:42:21.477Z,99164.16
2022-08-29T20:44:50.858Z,99166.22
2022-08-29T20:47:22.232Z,99153.81
2022-08-29T20:49:52.140Z,99151.22
2022-08-29T20:52:21.660Z,99152.03
2022-08-29T20:54:51.320Z,99150.06
2022-08-29T20:57:22.425Z,99138.09
2022-08-29T20:59:53.624Z,99139.66
2022-08-29T21:02:28.081Z,99148.56
2022-08-29T21:05:16.105Z,99151.78
2022-08-29T21:07:47.132Z,99146.34
2022-08-29T21:10:17.104Z,99139.88
2022-08-29T21:12:48.285Z,99138.69
2022-08-29T21:15:17.634Z,99128.38
2022-08-29T21:17:46.876Z,99140.00
2022-08-29T21:20:16.331Z,99144.13
2022-08-29T21:22:45.640Z,99129.09
2022-08-29T21:25:20.238Z,99143.84
2022-08-29T21:27:51.476Z,99137.38
2022-08-29T21:32:56.540Z,99146.63
2022-08-29T21:35:25.696Z,99147.28
2022-08-29T21:37:55.011Z,99150.09
2022-08-29T21:40:25.471Z,99148.41
2022-08-29T21:42:56.772Z,99143.25
2022-08-29T21:45:25.915Z,99137.38
2022-08-29T21:47:57.365Z,99142.78
2022-08-29T21:50:27.174Z,99142.13
2022-08-29T21:52:56.550Z,99136.88
2022-08-29T21:55:26.429Z,99139.81
2022-08-29T21:57:59.283Z,99140.00
2022-08-29T22:00:32.115Z,99133.22
2022-08-29T22:03:02.951Z,99125.66
2022-08-29T22:05:40.761Z,99123.84
2022-08-29T22:08:13.228Z,99122.94
2022-08-29T22:10:44.741Z,99102.56
2022-08-29T22:13:16.284Z,99115.78
2022-08-29T22:16:10.173Z,99113.34
2022-08-29T22:18:39.364Z,99113.84
2022-08-29T22:21:13.379Z,99113.72
2022-08-29T22:26:19.376Z,99106.59
2022-08-29T22:28:50.815Z,99115.25
2022-08-29T22:31:20.655Z,99117.66
2022-08-29T22:33:50.803Z,99111.66
2022-08-29T22:36:22.899Z,99117.00
2022-08-29T22:38:56.666Z,99115.25
2022-08-29T22:41:32.165Z,99078.19
2022-08-29T22:44:42.398Z,99096.28
2022-08-29T22:46:53.592Z,99105.47
2022-08-29T22:49:25.538Z,99102.22
2022-08-29T22:52:02.640Z,99098.81
2022-08-29T22:54:41.422Z,99098.81
2022-08-29T22:57:13.583Z,99100.72
2022-08-29T22:59:45.793Z,99093.94
2022-08-29T23:02:15.554Z,99087.28
2022-08-29T23:04:47.108Z,99078.09
2022-08-29T23:07:17.078Z,99081.78
2022-08-29T23:09:46.390Z,99100.59
2022-08-29T23:12:17.099Z,99097.16
2022-08-29T23:14:48.512Z,99096.03
2022-08-29T23:17:19.568Z,99099.69
2022-08-29T23:19:49.949Z,99084.31
2022-08-29T23:22:25.578Z,99091.03
2022-08-29T23:24:58.838Z,99089.38
2022-08-29T23:27:29.275Z,99085.63
2022-08-29T23:30:13.944Z,99085.97
2022-08-29T23:32:46.996Z,99081.09
2022-08-29T23:35:16.269Z,99088.78
2022-08-29T23:37:46.872Z,99088.88
2022-08-29T23:40:16.259Z,99086.06
2022-08-29T23:42:50.650Z,99081.69
2022-08-29T23:45:22.012Z,99057.28
2022-08-29T23:47:52.018Z,99073.97
2022-08-29T23:50:21.377Z,99079.59
2022-08-29T23:52:50.579Z,99072.56
2022-08-29T23:55:25.038Z,99073.44
2022-08-29T23:58:04.633Z,99072.22
